sensor_id;sensor_type;location;lat;lon;timestamp;temperature;humidity
8188;DHT22;4135;49.184;9.722;2022-10-26T00:01:36;20.80;62.80
8188;DHT22;4135;49.184;9.722;2022-10-26T00:04:06;20.90;62.90
8188;DHT22;4135;49.184;9.722;2022-10-26T00:06:35;20.90;62.90
8188;DHT22;4135;49.184;9.722;2022-10-26T00:09:05;20.80;62.80
8188;DHT22;4135;49.184;9.722;2022-10-26T00:11:34;20.80;62.80
8188;DHT22;4135;49.184;9.722;2022-10-26T00:14:04;20.80;62.80
8188;DHT22;4135;49.184;9.722;2022-10-26T00:16:33;20.80;62.70
8188;DHT22;4135;49.184;9.722;2022-10-26T00:19:03;20.80;62.70
8188;DHT22;4135;49.184;9.722;2022-10-26T00:21:32;20.80;62.70
8188;DHT22;4135;49.184;9.722;2022-10-26T00:24:02;20.80;62.70
8188;DHT22;4135;49.184;9.722;2022-10-26T00:26:32;20.80;62.60
8188;DHT22;4135;49.184;9.722;2022-10-26T00:29:01;20.80;62.70
8188;DHT22;4135;49.184;9.722;2022-10-26T00:31:31;20.80;62.70
8188;DHT22;4135;49.184;9.722;2022-10-26T00:34:01;20.80;62.60
8188;DHT22;4135;49.184;9.722;2022-10-26T00:36:30;20.80;62.60
8188;DHT22;4135;49.184;9.722;2022-10-26T00:39:00;20.80;63.20
8188;DHT22;4135;49.184;9.722;2022-10-26T00:41:32;20.80;62.50
8188;DHT22;4135;49.184;9.722;2022-10-26T00:44:43;20.80;62.60
8188;DHT22;4135;49.184;9.722;2022-10-26T00:47:37;20.80;62.60
8188;DHT22;4135;49.184;9.722;2022-10-26T00:50:16;20.80;62.50
8188;DHT22;4135;49.184;9.722;2022-10-26T00:52:48;20.80;62.50
8188;DHT22;4135;49.184;9.722;2022-10-26T00:55:22;20.80;62.50
8188;DHT22;4135;49.184;9.722;2022-10-26T00:57:53;20.80;62.50
8188;DHT22;4135;49.184;9.722;2022-10-26T01:00:23;20.70;62.40
8188;DHT22;4135;49.184;9.722;2022-10-26T01:02:54;20.70;62.40
8188;DHT22;4135;49.184;9.722;2022-10-26T01:05:26;20.70;62.40
8188;DHT22;4135;49.184;9.722;2022-10-26T01:07:56;20.80;62.50
8188;DHT22;4135;49.184;9.722;2022-10-26T01:10:26;20.70;62.40
8188;DHT22;4135;49.184;9.722;2022-10-26T01:12:57;20.70;62.30
8188;DHT22;4135;49.184;9.722;2022-10-26T01:15:38;20.70;62.30
8188;DHT22;4135;49.184;9.722;2022-10-26T01:18:19;20.70;62.30
8188;DHT22;4135;49.184;9.722;2022-10-26T01:24:06;20.70;62.30
8188;DHT22;4135;49.184;9.722;2022-10-26T01:27:05;20.70;62.30
8188;DHT22;4135;49.184;9.722;2022-10-26T01:41:16;20.70;62.20
8188;DHT22;4135;49.184;9.722;2022-10-26T01:43:57;20.60;62.10
8188;DHT22;4135;49.184;9.722;2022-10-26T01:46:31;20.60;62.10
8188;DHT22;4135;49.184;9.722;2022-10-26T01:49:07;20.60;62.10
8188;DHT22;4135;49.184;9.722;2022-10-26T01:51:40;20.60;62.10
8188;DHT22;4135;49.184;9.722;2022-10-26T01:54:10;20.60;62.10
8188;DHT22;4135;49.184;9.722;2022-10-26T01:56:41;20.60;62.10
8188;DHT22;4135;49.184;9.722;2022-10-26T02:08:07;20.60;62.10
8188;DHT22;4135;49.184;9.722;2022-10-26T02:10:58;20.60;62.00
8188;DHT22;4135;49.184;9.722;2022-10-26T02:13:47;20.60;62.10
8188;DHT22;4135;49.184;9.722;2022-10-26T02:20:03;20.60;62.10
8188;DHT22;4135;49.184;9.722;2022-10-26T02:22:17;20.60;62.10
8188;DHT22;4135;49.184;9.722;2022-10-26T02:24:50;20.60;62.10
8188;DHT22;4135;49.184;9.722;2022-10-26T02:27:25;20.60;62.30
8188;DHT22;4135;49.184;9.722;2022-10-26T02:29:56;20.60;62.10
8188;DHT22;4135;49.184;9.722;2022-10-26T02:32:30;20.60;62.10
8188;DHT22;4135;49.184;9.722;2022-10-26T02:35:02;20.60;62.10
8188;DHT22;4135;49.184;9.722;2022-10-26T02:37:34;20.60;62.10
8188;DHT22;4135;49.184;9.722;2022-10-26T02:40:09;20.50;62.10
8188;DHT22;4135;49.184;9.722;2022-10-26T02:42:42;20.60;62.10
8188;DHT22;4135;49.184;9.722;2022-10-26T02:45:17;20.60;62.10
8188;DHT22;4135;49.184;9.722;2022-10-26T02:47:48;20.60;62.10
8188;DHT22;4135;49.184;9.722;2022-10-26T02:50:21;20.50;62.10
8188;DHT22;4135;49.184;9.722;2022-10-26T02:55:39;20.50;62.10
8188;DHT22;4135;49.184;9.722;2022-10-26T02:58:18;20.60;62.10
8188;DHT22;4135;49.184;9.722;2022-10-26T03:00:49;20.50;62.10
8188;DHT22;4135;49.184;9.722;2022-10-26T03:03:19;20.50;62.10
8188;DHT22;4135;49.184;9.722;2022-10-26T03:05:49;20.50;62.00
8188;DHT22;4135;49.184;9.722;2022-10-26T03:08:19;20.50;62.00
8188;DHT22;4135;49.184;9.722;2022-10-26T03:10:48;20.50;62.00
8188;DHT22;4135;49.184;9.722;2022-10-26T03:13:18;20.50;62.00
8188;DHT22;4135;49.184;9.722;2022-10-26T03:15:48;20.50;62.00
8188;DHT22;4135;49.184;9.722;2022-10-26T03:18:17;20.50;62.00
8188;DHT22;4135;49.184;9.722;2022-10-26T03:20:47;20.50;62.00
8188;DHT22;4135;49.184;9.722;2022-10-26T03:23:16;20.50;62.00
8188;DHT22;4135;49.184;9.722;2022-10-26T03:25:46;20.50;62.00
8188;DHT22;4135;49.184;9.722;2022-10-26T03:28:15;20.50;62.10
8188;DHT22;4135;49.184;9.722;2022-10-26T03:30:45;20.50;62.10
8188;DHT22;4135;49.184;9.722;2022-10-26T03:33:14;20.50;62.10
8188;DHT22;4135;49.184;9.722;2022-10-26T03:35:44;20.50;62.00
8188;DHT22;4135;49.184;9.722;2022-10-26T03:38:13;20.50;62.10
8188;DHT22;4135;49.184;9.722;2022-10-26T03:40:43;20.50;62.10
8188;DHT22;4135;49.184;9.722;2022-10-26T03:43:12;20.50;62.10
8188;DHT22;4135;49.184;9.722;2022-10-26T03:45:42;20.50;62.10
8188;DHT22;4135;49.184;9.722;2022-10-26T03:48:11;20.50;62.10
8188;DHT22;4135;49.184;9.722;2022-10-26T03:50:41;20.50;62.10
8188;DHT22;4135;49.184;9.722;2022-10-26T03:53:11;20.50;62.10
8188;DHT22;4135;49.184;9.722;2022-10-26T03:55:43;20.50;62.10
8188;DHT22;4135;49.184;9.722;2022-10-26T03:58:13;20.50;62.10
8188;DHT22;4135;49.184;9.722;2022-10-26T04:00:42;20.50;62.10
8188;DHT22;4135;49.184;9.722;2022-10-26T04:03:12;20.50;62.10
8188;DHT22;4135;49.184;9.722;2022-10-26T04:05:41;20.40;61.90
8188;DHT22;4135;49.184;9.722;2022-10-26T04:08:11;20.50;62.10
8188;DHT22;4135;49.184;9.722;2022-10-26T04:10:40;20.40;62.00
8188;DHT22;4135;49.184;9.722;2022-10-26T04:13:10;20.40;61.90
8188;DHT22;4135;49.184;9.722;2022-10-26T04:15:40;20.40;61.90
8188;DHT22;4135;49.184;9.722;2022-10-26T04:18:09;20.40;61.90
8188;DHT22;4135;49.184;9.722;2022-10-26T04:20:41;20.50;62.10
8188;DHT22;4135;49.184;9.722;2022-10-26T04:23:13;20.40;61.90
8188;DHT22;4135;49.184;9.722;2022-10-26T04:25:44;20.40;61.90
8188;DHT22;4135;49.184;9.722;2022-10-26T04:28:13;20.50;62.10
8188;DHT22;4135;49.184;9.722;2022-10-26T04:30:43;20.40;61.90
8188;DHT22;4135;49.184;9.722;2022-10-26T04:33:12;20.40;61.90
8188;DHT22;4135;49.184;9.722;2022-10-26T04:35:42;20.40;61.90
8188;DHT22;4135;49.184;9.722;2022-10-26T04:38:11;20.40;61.90
8188;DHT22;4135;49.184;9.722;2022-10-26T04:40:41;20.40;61.90
8188;DHT22;4135;49.184;9.722;2022-10-26T04:43:10;20.40;61.90
8188;DHT22;4135;49.184;9.722;2022-10-26T04:45:40;20.40;61.90
8188;DHT22;4135;49.184;9.722;2022-10-26T04:48:11;20.40;61.90
8188;DHT22;4135;49.184;9.722;2022-10-26T04:50:40;20.40;61.90
8188;DHT22;4135;49.184;9.722;2022-10-26T04:53:10;20.40;61.90
8188;DHT22;4135;49.184;9.722;2022-10-26T04:55:40;20.40;62.60
8188;DHT22;4135;49.184;9.722;2022-10-26T04:58:09;20.40;61.90
8188;DHT22;4135;49.184;9.722;2022-10-26T05:00:39;20.40;61.90
8188;DHT22;4135;49.184;9.722;2022-10-26T05:03:08;20.40;61.90
8188;DHT22;4135;49.184;9.722;2022-10-26T05:05:38;20.40;61.90
8188;DHT22;4135;49.184;9.722;2022-10-26T05:08:07;20.40;62.00
8188;DHT22;4135;49.184;9.722;2022-10-26T05:10:37;20.40;62.10
8188;DHT22;4135;49.184;9.722;2022-10-26T05:13:08;20.40;62.10
8188;DHT22;4135;49.184;9.722;2022-10-26T05:15:38;20.40;62.10
8188;DHT22;4135;49.184;9.722;2022-10-26T05:18:07;20.40;62.10
8188;DHT22;4135;49.184;9.722;2022-10-26T05:20:37;20.40;62.20
8188;DHT22;4135;49.184;9.722;2022-10-26T05:23:10;20.40;62.10
8188;DHT22;4135;49.184;9.722;2022-10-26T05:25:40;20.40;62.20
8188;DHT22;4135;49.184;9.722;2022-10-26T05:28:10;20.40;62.60
8188;DHT22;4135;49.184;9.722;2022-10-26T05:30:42;20.40;63.30
8188;DHT22;4135;49.184;9.722;2022-10-26T05:33:13;20.40;63.60
8188;DHT22;4135;49.184;9.722;2022-10-26T05:35:43;20.40;63.80
8188;DHT22;4135;49.184;9.722;2022-10-26T05:38:16;20.40;63.70
8188;DHT22;4135;49.184;9.722;2022-10-26T05:40:55;20.30;63.50
8188;DHT22;4135;49.184;9.722;2022-10-26T05:43:24;20.30;63.60
8188;DHT22;4135;49.184;9.722;2022-10-26T05:45:55;20.30;63.60
8188;DHT22;4135;49.184;9.722;2022-10-26T05:48:25;20.30;63.50
8188;DHT22;4135;49.184;9.722;2022-10-26T05:50:58;20.30;63.50
8188;DHT22;4135;49.184;9.722;2022-10-26T05:53:27;20.30;63.60
8188;DHT22;4135;49.184;9.722;2022-10-26T05:55:57;20.30;63.50
8188;DHT22;4135;49.184;9.722;2022-10-26T05:58:27;20.30;63.60
8188;DHT22;4135;49.184;9.722;2022-10-26T06:01:10;20.30;63.50
8188;DHT22;4135;49.184;9.722;2022-10-26T06:06:17;20.20;63.40
8188;DHT22;4135;49.184;9.722;2022-10-26T06:08:47;20.20;63.40
8188;DHT22;4135;49.184;9.722;2022-10-26T06:11:17;20.20;63.50
8188;DHT22;4135;49.184;9.722;2022-10-26T06:13:47;20.20;63.50
8188;DHT22;4135;49.184;9.722;2022-10-26T06:19:31;20.20;63.40
8188;DHT22;4135;49.184;9.722;2022-10-26T06:24:59;20.20;63.40
8188;DHT22;4135;49.184;9.722;2022-10-26T06:30:27;20.20;63.30
8188;DHT22;4135;49.184;9.722;2022-10-26T06:32:57;20.20;63.30
8188;DHT22;4135;49.184;9.722;2022-10-26T06:35:42;20.20;63.30
8188;DHT22;4135;49.184;9.722;2022-10-26T06:38:16;20.20;63.50
8188;DHT22;4135;49.184;9.722;2022-10-26T06:40:51;20.20;63.30
8188;DHT22;4135;49.184;9.722;2022-10-26T06:43:26;20.30;63.40
8188;DHT22;4135;49.184;9.722;2022-10-26T06:51:28;20.30;63.50
8188;DHT22;4135;49.184;9.722;2022-10-26T06:54:06;20.30;63.80
8188;DHT22;4135;49.184;9.722;2022-10-26T06:56:39;20.30;63.70
8188;DHT22;4135;49.184;9.722;2022-10-26T06:59:16;20.30;63.60
8188;DHT22;4135;49.184;9.722;2022-10-26T07:01:49;20.30;63.60
8188;DHT22;4135;49.184;9.722;2022-10-26T07:04:19;20.30;63.60
8188;DHT22;4135;49.184;9.722;2022-10-26T07:06:48;20.30;63.70
8188;DHT22;4135;49.184;9.722;2022-10-26T07:09:18;20.30;68.70
8188;DHT22;4135;49.184;9.722;2022-10-26T07:11:47;20.30;69.70
8188;DHT22;4135;49.184;9.722;2022-10-26T07:14:17;20.20;69.20
8188;DHT22;4135;49.184;9.722;2022-10-26T07:16:46;20.20;68.70
8188;DHT22;4135;49.184;9.722;2022-10-26T07:19:16;20.20;68.30
8188;DHT22;4135;49.184;9.722;2022-10-26T07:21:45;20.20;68.00
8188;DHT22;4135;49.184;9.722;2022-10-26T07:24:15;20.20;68.00
8188;DHT22;4135;49.184;9.722;2022-10-26T07:26:44;20.20;67.90
8188;DHT22;4135;49.184;9.722;2022-10-26T07:29:14;20.20;67.90
8188;DHT22;4135;49.184;9.722;2022-10-26T07:31:46;20.20;67.90
8188;DHT22;4135;49.184;9.722;2022-10-26T07:34:16;20.20;67.90
8188;DHT22;4135;49.184;9.722;2022-10-26T07:36:45;20.20;68.00
8188;DHT22;4135;49.184;9.722;2022-10-26T07:39:15;20.20;67.90
8188;DHT22;4135;49.184;9.722;2022-10-26T07:41:44;20.20;67.90
8188;DHT22;4135;49.184;9.722;2022-10-26T07:44:14;20.20;67.70
8188;DHT22;4135;49.184;9.722;2022-10-26T07:46:44;20.20;67.70
8188;DHT22;4135;49.184;9.722;2022-10-26T07:49:13;20.20;67.70
8188;DHT22;4135;49.184;9.722;2022-10-26T07:51:43;20.20;67.70
8188;DHT22;4135;49.184;9.722;2022-10-26T07:54:13;20.20;67.60
8188;DHT22;4135;49.184;9.722;2022-10-26T07:56:42;20.10;67.40
8188;DHT22;4135;49.184;9.722;2022-10-26T07:59:12;20.10;67.40
8188;DHT22;4135;49.184;9.722;2022-10-26T08:01:42;20.20;67.50
8188;DHT22;4135;49.184;9.722;2022-10-26T08:04:11;20.20;67.50
8188;DHT22;4135;49.184;9.722;2022-10-26T08:06:41;20.20;67.50
8188;DHT22;4135;49.184;9.722;2022-10-26T08:09:10;20.20;67.60
8188;DHT22;4135;49.184;9.722;2022-10-26T08:11:40;20.20;67.50
8188;DHT22;4135;49.184;9.722;2022-10-26T08:14:09;20.20;67.60
8188;DHT22;4135;49.184;9.722;2022-10-26T08:16:39;20.20;67.70
8188;DHT22;4135;49.184;9.722;2022-10-26T08:19:08;20.20;67.80
8188;DHT22;4135;49.184;9.722;2022-10-26T08:21:38;20.20;67.70
8188;DHT22;4135;49.184;9.722;2022-10-26T08:24:08;20.20;67.80
8188;DHT22;4135;49.184;9.722;2022-10-26T08:26:37;20.20;67.80
8188;DHT22;4135;49.184;9.722;2022-10-26T08:29:07;20.20;68.00
8188;DHT22;4135;49.184;9.722;2022-10-26T08:31:36;20.20;67.90
8188;DHT22;4135;49.184;9.722;2022-10-26T08:34:06;20.20;67.90
8188;DHT22;4135;49.184;9.722;2022-10-26T08:36:36;20.20;68.00
8188;DHT22;4135;49.184;9.722;2022-10-26T08:39:05;20.20;68.10
8188;DHT22;4135;49.184;9.722;2022-10-26T08:41:38;20.20;68.20
8188;DHT22;4135;49.184;9.722;2022-10-26T08:44:25;20.20;68.30
8188;DHT22;4135;49.184;9.722;2022-10-26T08:47:25;20.20;68.30
8188;DHT22;4135;49.184;9.722;2022-10-26T08:50:08;20.20;68.20
8188;DHT22;4135;49.184;9.722;2022-10-26T08:52:48;20.20;68.30
8188;DHT22;4135;49.184;9.722;2022-10-26T08:55:25;20.20;68.40
8188;DHT22;4135;49.184;9.722;2022-10-26T08:57:58;20.20;69.00
8188;DHT22;4135;49.184;9.722;2022-10-26T09:00:29;20.20;68.40
8188;DHT22;4135;49.184;9.722;2022-10-26T09:02:59;20.20;68.40
8188;DHT22;4135;49.184;9.722;2022-10-26T09:08:27;20.30;68.60
8188;DHT22;4135;49.184;9.722;2022-10-26T09:13:55;20.30;68.50
8188;DHT22;4135;49.184;9.722;2022-10-26T09:19:59;20.30;68.60
8188;DHT22;4135;49.184;9.722;2022-10-26T09:22:49;20.30;68.60
8188;DHT22;4135;49.184;9.722;2022-10-26T09:25:22;20.30;68.60
8188;DHT22;4135;49.184;9.722;2022-10-26T09:27:59;20.40;68.80
8188;DHT22;4135;49.184;9.722;2022-10-26T09:30:29;20.40;69.00
8188;DHT22;4135;49.184;9.722;2022-10-26T09:33:02;20.40;69.10
8188;DHT22;4135;49.184;9.722;2022-10-26T09:35:43;20.40;69.80
8188;DHT22;4135;49.184;9.722;2022-10-26T09:38:24;20.40;70.00
8188;DHT22;4135;49.184;9.722;2022-10-26T09:41:17;20.40;69.40
8188;DHT22;4135;49.184;9.722;2022-10-26T09:44:27;20.40;69.50
8188;DHT22;4135;49.184;9.722;2022-10-26T09:47:30;20.40;69.80
8188;DHT22;4135;49.184;9.722;2022-10-26T09:52:34;20.40;69.80
8188;DHT22;4135;49.184;9.722;2022-10-26T09:55:04;20.40;69.70
8188;DHT22;4135;49.184;9.722;2022-10-26T09:57:34;20.40;70.10
8188;DHT22;4135;49.184;9.722;2022-10-26T10:00:04;20.40;69.60
8188;DHT22;4135;49.184;9.722;2022-10-26T10:02:35;20.50;69.50
8188;DHT22;4135;49.184;9.722;2022-10-26T10:05:30;20.50;69.20
8188;DHT22;4135;49.184;9.722;2022-10-26T10:08:16;20.50;69.50
8188;DHT22;4135;49.184;9.722;2022-10-26T10:11:01;20.50;69.60
8188;DHT22;4135;49.184;9.722;2022-10-26T10:13:36;20.50;70.00
8188;DHT22;4135;49.184;9.722;2022-10-26T10:18:57;20.50;69.60
8188;DHT22;4135;49.184;9.722;2022-10-26T10:21:48;20.50;69.10
8188;DHT22;4135;49.184;9.722;2022-10-26T10:24:22;20.60;70.00
8188;DHT22;4135;49.184;9.722;2022-10-26T10:29:49;20.50;69.30
8188;DHT22;4135;49.184;9.722;2022-10-26T10:32:27;20.60;68.90
8188;DHT22;4135;49.184;9.722;2022-10-26T10:34:59;20.60;68.70
8188;DHT22;4135;49.184;9.722;2022-10-26T10:37:40;20.60;69.30
8188;DHT22;4135;49.184;9.722;2022-10-26T10:40:23;20.60;69.10
8188;DHT22;4135;49.184;9.722;2022-10-26T10:43:10;20.70;68.10
8188;DHT22;4135;49.184;9.722;2022-10-26T10:45:46;20.70;67.80
8188;DHT22;4135;49.184;9.722;2022-10-26T10:48:27;20.80;67.50
8188;DHT22;4135;49.184;9.722;2022-10-26T10:51:06;20.90;67.20
8188;DHT22;4135;49.184;9.722;2022-10-26T10:53:54;20.90;67.00
8188;DHT22;4135;49.184;9.722;2022-10-26T10:56:41;21.00;66.90
8188;DHT22;4135;49.184;9.722;2022-10-26T11:07:29;21.20;66.50
8188;DHT22;4135;49.184;9.722;2022-10-26T11:10:01;21.20;66.50
8188;DHT22;4135;49.184;9.722;2022-10-26T11:12:35;21.20;66.40
8188;DHT22;4135;49.184;9.722;2022-10-26T11:15:17;21.20;66.40
8188;DHT22;4135;49.184;9.722;2022-10-26T11:18:13;21.30;66.30
8188;DHT22;4135;49.184;9.722;2022-10-26T11:20:55;21.40;66.20
8188;DHT22;4135;49.184;9.722;2022-10-26T11:23:39;19.30;63.80
8188;DHT22;4135;49.184;9.722;2022-10-26T11:26:17;21.60;65.80
8188;DHT22;4135;49.184;9.722;2022-10-26T11:31:31;22.00;65.20
8188;DHT22;4135;49.184;9.722;2022-10-26T11:34:11;22.40;64.40
8188;DHT22;4135;49.184;9.722;2022-10-26T11:36:44;23.10;62.80
8188;DHT22;4135;49.184;9.722;2022-10-26T11:39:30;23.50;61.50
8188;DHT22;4135;49.184;9.722;2022-10-26T11:42:55;23.60;60.50
8188;DHT22;4135;49.184;9.722;2022-10-26T11:45:14;23.80;60.00
8188;DHT22;4135;49.184;9.722;2022-10-26T11:47:50;23.80;59.80
8188;DHT22;4135;49.184;9.722;2022-10-26T11:50:35;23.90;59.80
8188;DHT22;4135;49.184;9.722;2022-10-26T11:53:18;24.00;59.60
8188;DHT22;4135;49.184;9.722;2022-10-26T11:55:52;24.00;59.50
8188;DHT22;4135;49.184;9.722;2022-10-26T11:58:24;24.00;59.50
8188;DHT22;4135;49.184;9.722;2022-10-26T12:00:59;23.90;59.60
8188;DHT22;4135;49.184;9.722;2022-10-26T12:03:36;24.00;59.80
8188;DHT22;4135;49.184;9.722;2022-10-26T12:06:07;24.00;59.80
8188;DHT22;4135;49.184;9.722;2022-10-26T12:08:39;24.00;59.90
8188;DHT22;4135;49.184;9.722;2022-10-26T12:11:41;23.80;59.70
8188;DHT22;4135;49.184;9.722;2022-10-26T12:22:49;23.70;60.30
8188;DHT22;4135;49.184;9.722;2022-10-26T12:25:20;23.60;60.60
8188;DHT22;4135;49.184;9.722;2022-10-26T12:27:53;23.50;61.40
8188;DHT22;4135;49.184;9.722;2022-10-26T12:33:02;23.50;60.70
8188;DHT22;4135;49.184;9.722;2022-10-26T12:35:35;23.60;61.00
8188;DHT22;4135;49.184;9.722;2022-10-26T12:43:39;23.20;61.50
8188;DHT22;4135;49.184;9.722;2022-10-26T12:48:49;23.30;61.50
8188;DHT22;4135;49.184;9.722;2022-10-26T13:00:01;23.30;61.70
8188;DHT22;4135;49.184;9.722;2022-10-26T13:03:00;23.30;61.60
8188;DHT22;4135;49.184;9.722;2022-10-26T13:05:53;23.40;61.70
8188;DHT22;4135;49.184;9.722;2022-10-26T13:08:26;23.30;61.60
8188;DHT22;4135;49.184;9.722;2022-10-26T13:13:55;23.30;61.90
8188;DHT22;4135;49.184;9.722;2022-10-26T13:16:27;23.30;61.90
8188;DHT22;4135;49.184;9.722;2022-10-26T13:18:58;23.30;61.90
8188;DHT22;4135;49.184;9.722;2022-10-26T13:21:27;23.30;62.10
8188;DHT22;4135;49.184;9.722;2022-10-26T13:23:58;23.30;61.90
8188;DHT22;4135;49.184;9.722;2022-10-26T13:26:31;23.30;62.10
8188;DHT22;4135;49.184;9.722;2022-10-26T13:29:02;23.30;62.20
8188;DHT22;4135;49.184;9.722;2022-10-26T13:34:13;23.30;62.20
8188;DHT22;4135;49.184;9.722;2022-10-26T13:37:17;23.20;62.20
8188;DHT22;4135;49.184;9.722;2022-10-26T13:39:49;23.20;62.20
8188;DHT22;4135;49.184;9.722;2022-10-26T13:42:37;23.20;62.30
8188;DHT22;4135;49.184;9.722;2022-10-26T13:45:12;23.10;62.30
8188;DHT22;4135;49.184;9.722;2022-10-26T13:48:10;23.20;62.50
8188;DHT22;4135;49.184;9.722;2022-10-26T13:50:50;23.10;62.50
8188;DHT22;4135;49.184;9.722;2022-10-26T13:53:38;23.10;62.50
8188;DHT22;4135;49.184;9.722;2022-10-26T13:58:56;23.10;62.60
8188;DHT22;4135;49.184;9.722;2022-10-26T14:01:28;23.00;62.50
8188;DHT22;4135;49.184;9.722;2022-10-26T14:03:58;23.00;62.50
8188;DHT22;4135;49.184;9.722;2022-10-26T14:06:35;23.00;62.60
8188;DHT22;4135;49.184;9.722;2022-10-26T14:09:11;23.00;62.60
8188;DHT22;4135;49.184;9.722;2022-10-26T14:11:49;23.00;62.70
8188;DHT22;4135;49.184;9.722;2022-10-26T14:14:32;23.00;62.70
8188;DHT22;4135;49.184;9.722;2022-10-26T14:17:03;23.00;62.70
8188;DHT22;4135;49.184;9.722;2022-10-26T14:19:36;23.00;62.70
8188;DHT22;4135;49.184;9.722;2022-10-26T14:22:06;23.00;62.80
8188;DHT22;4135;49.184;9.722;2022-10-26T14:24:36;23.00;62.80
8188;DHT22;4135;49.184;9.722;2022-10-26T14:27:19;23.00;62.90
8188;DHT22;4135;49.184;9.722;2022-10-26T14:29:53;23.00;62.90
8188;DHT22;4135;49.184;9.722;2022-10-26T14:32:30;23.00;62.90
8188;DHT22;4135;49.184;9.722;2022-10-26T14:35:01;22.90;62.80
8188;DHT22;4135;49.184;9.722;2022-10-26T14:37:59;22.90;63.50
8188;DHT22;4135;49.184;9.722;2022-10-26T14:40:34;22.90;62.90
8188;DHT22;4135;49.184;9.722;2022-10-26T14:43:04;22.90;63.20
8188;DHT22;4135;49.184;9.722;2022-10-26T14:45:36;22.90;63.50
8188;DHT22;4135;49.184;9.722;2022-10-26T14:48:14;22.90;63.30
8188;DHT22;4135;49.184;9.722;2022-10-26T14:51:18;22.90;63.30
8188;DHT22;4135;49.184;9.722;2022-10-26T14:53:51;22.80;63.10
8188;DHT22;4135;49.184;9.722;2022-10-26T14:56:27;22.90;63.60
8188;DHT22;4135;49.184;9.722;2022-10-26T14:59:27;22.80;63.70
8188;DHT22;4135;49.184;9.722;2022-10-26T15:02:17;22.80;63.60
8188;DHT22;4135;49.184;9.722;2022-10-26T15:04:59;22.80;63.70
8188;DHT22;4135;49.184;9.722;2022-10-26T15:07:36;22.80;63.90
8188;DHT22;4135;49.184;9.722;2022-10-26T15:13:29;22.80;64.00
8188;DHT22;4135;49.184;9.722;2022-10-26T15:16:23;22.80;64.00
8188;DHT22;4135;49.184;9.722;2022-10-26T15:19:08;22.90;64.20
8188;DHT22;4135;49.184;9.722;2022-10-26T15:21:45;22.80;64.00
8188;DHT22;4135;49.184;9.722;2022-10-26T15:24:25;22.80;64.10
8188;DHT22;4135;49.184;9.722;2022-10-26T15:26:55;22.80;64.20
8188;DHT22;4135;49.184;9.722;2022-10-26T15:29:36;22.70;64.20
8188;DHT22;4135;49.184;9.722;2022-10-26T15:37:49;22.70;64.20
8188;DHT22;4135;49.184;9.722;2022-10-26T15:40:20;22.70;64.20
8188;DHT22;4135;49.184;9.722;2022-10-26T15:42:51;22.70;64.30
8188;DHT22;4135;49.184;9.722;2022-10-26T15:45:22;22.70;64.30
8188;DHT22;4135;49.184;9.722;2022-10-26T15:47:53;22.60;64.40
8188;DHT22;4135;49.184;9.722;2022-10-26T15:50:26;22.70;64.60
8188;DHT22;4135;49.184;9.722;2022-10-26T15:53:01;22.60;64.60
8188;DHT22;4135;49.184;9.722;2022-10-26T15:55:31;22.60;64.80
8188;DHT22;4135;49.184;9.722;2022-10-26T15:58:00;22.50;64.80
8188;DHT22;4135;49.184;9.722;2022-10-26T16:00:30;22.50;64.80
8188;DHT22;4135;49.184;9.722;2022-10-26T16:03:01;22.50;65.00
8188;DHT22;4135;49.184;9.722;2022-10-26T16:05:31;22.50;65.00
8188;DHT22;4135;49.184;9.722;2022-10-26T16:08:00;22.50;65.00
8188;DHT22;4135;49.184;9.722;2022-10-26T16:10:30;22.40;65.00
8188;DHT22;4135;49.184;9.722;2022-10-26T16:12:59;22.40;65.00
8188;DHT22;4135;49.184;9.722;2022-10-26T16:15:29;22.40;65.00
8188;DHT22;4135;49.184;9.722;2022-10-26T16:17:59;22.40;65.10
8188;DHT22;4135;49.184;9.722;2022-10-26T16:20:28;22.30;65.10
8188;DHT22;4135;49.184;9.722;2022-10-26T16:22:58;22.30;65.10
8188;DHT22;4135;49.184;9.722;2022-10-26T16:25:40;22.30;65.10
8188;DHT22;4135;49.184;9.722;2022-10-26T16:28:12;22.30;65.20
8188;DHT22;4135;49.184;9.722;2022-10-26T16:30:43;22.20;65.10
8188;DHT22;4135;49.184;9.722;2022-10-26T16:33:13;22.20;65.90
8188;DHT22;4135;49.184;9.722;2022-10-26T16:35:42;22.20;65.30
8188;DHT22;4135;49.184;9.722;2022-10-26T16:38:12;22.20;65.40
8188;DHT22;4135;49.184;9.722;2022-10-26T16:40:41;22.10;65.40
8188;DHT22;4135;49.184;9.722;2022-10-26T16:43:13;22.10;65.50
8188;DHT22;4135;49.184;9.722;2022-10-26T16:45:43;22.10;65.50
8188;DHT22;4135;49.184;9.722;2022-10-26T16:48:12;22.10;65.50
8188;DHT22;4135;49.184;9.722;2022-10-26T16:50:44;22.10;65.50
8188;DHT22;4135;49.184;9.722;2022-10-26T16:53:13;22.10;65.50
8188;DHT22;4135;49.184;9.722;2022-10-26T16:55:43;22.10;65.50
8188;DHT22;4135;49.184;9.722;2022-10-26T16:58:12;22.10;65.50
8188;DHT22;4135;49.184;9.722;2022-10-26T17:00:42;22.00;65.40
8188;DHT22;4135;49.184;9.722;2022-10-26T17:03:11;22.00;65.40
8188;DHT22;4135;49.184;9.722;2022-10-26T17:05:41;22.00;65.50
8188;DHT22;4135;49.184;9.722;2022-10-26T17:08:10;21.90;65.30
8188;DHT22;4135;49.184;9.722;2022-10-26T17:10:40;21.90;65.90
8188;DHT22;4135;49.184;9.722;2022-10-26T17:13:09;21.90;65.70
8188;DHT22;4135;49.184;9.722;2022-10-26T17:15:39;22.00;65.60
8188;DHT22;4135;49.184;9.722;2022-10-26T17:18:08;21.90;65.50
8188;DHT22;4135;49.184;9.722;2022-10-26T17:20:39;22.10;65.70
8188;DHT22;4135;49.184;9.722;2022-10-26T17:23:17;22.10;65.50
8188;DHT22;4135;49.184;9.722;2022-10-26T17:25:46;22.10;65.40
8188;DHT22;4135;49.184;9.722;2022-10-26T17:28:16;22.10;65.80
8188;DHT22;4135;49.184;9.722;2022-10-26T17:30:45;22.00;66.10
8188;DHT22;4135;49.184;9.722;2022-10-26T17:33:15;21.90;66.30
8188;DHT22;4135;49.184;9.722;2022-10-26T17:35:44;21.80;66.30
8188;DHT22;4135;49.184;9.722;2022-10-26T17:38:14;21.80;66.30
8188;DHT22;4135;49.184;9.722;2022-10-26T17:40:43;21.80;66.40
8188;DHT22;4135;49.184;9.722;2022-10-26T17:43:13;21.80;66.50
8188;DHT22;4135;49.184;9.722;2022-10-26T17:45:42;21.80;66.50
8188;DHT22;4135;49.184;9.722;2022-10-26T17:48:12;21.70;66.40
8188;DHT22;4135;49.184;9.722;2022-10-26T17:50:41;21.70;66.40
8188;DHT22;4135;49.184;9.722;2022-10-26T17:53:11;21.70;66.50
8188;DHT22;4135;49.184;9.722;2022-10-26T17:55:40;21.70;67.20
8188;DHT22;4135;49.184;9.722;2022-10-26T17:58:10;21.70;66.60
8188;DHT22;4135;49.184;9.722;2022-10-26T18:00:39;21.60;66.60
8188;DHT22;4135;49.184;9.722;2022-10-26T18:03:09;21.60;66.60
8188;DHT22;4135;49.184;9.722;2022-10-26T18:05:38;21.60;66.70
8188;DHT22;4135;49.184;9.722;2022-10-26T18:08:08;21.60;66.80
8188;DHT22;4135;49.184;9.722;2022-10-26T18:10:37;21.60;66.80
8188;DHT22;4135;49.184;9.722;2022-10-26T18:13:14;21.60;66.80
8188;DHT22;4135;49.184;9.722;2022-10-26T18:15:43;21.60;66.60
8188;DHT22;4135;49.184;9.722;2022-10-26T18:18:13;21.60;66.90
8188;DHT22;4135;49.184;9.722;2022-10-26T18:20:42;21.60;66.80
8188;DHT22;4135;49.184;9.722;2022-10-26T18:23:12;21.60;66.90
8188;DHT22;4135;49.184;9.722;2022-10-26T18:25:41;21.60;66.90
8188;DHT22;4135;49.184;9.722;2022-10-26T18:28:11;21.60;67.00
8188;DHT22;4135;49.184;9.722;2022-10-26T18:30:40;21.60;67.10
8188;DHT22;4135;49.184;9.722;2022-10-26T18:33:10;21.60;67.10
8188;DHT22;4135;49.184;9.722;2022-10-26T18:35:39;21.60;67.10
8188;DHT22;4135;49.184;9.722;2022-10-26T18:38:09;21.60;67.30
8188;DHT22;4135;49.184;9.722;2022-10-26T18:40:38;21.60;67.30
8188;DHT22;4135;49.184;9.722;2022-10-26T18:43:08;21.70;67.50
8188;DHT22;4135;49.184;9.722;2022-10-26T18:45:38;21.70;67.40